タヒチ島 の空港の天気 - METARとTAF

タヒチ・ファアア国際空港 ( NTAA / PPT ) - フランス領ポリネシア タヒチ島
飛行場実況気象(Metar)
観測時間02/17 04:30 TAHT (02/17 14:30 UTC)
風向・風速西北西 9m/s
視程10km以上
天気現象
少しの雲 雲底高度 430m
全天の4割程度の雲 雲底高度 1040m
全天の8割程度の雲 雲底高度 1830m
気温27℃
湿度79%
気圧1005hPa
METARNTAA 171430Z AUTO 30018KT 9999 FEW014/// SCT034/// BKN060/// 27/23 Q1005 TEMPO 34030G45KT 0800 TSRA SCT008 BKN010CB
過去の天気等 Google飛行場航空写真 Wunderground天気予報

過去48時間のMETAR

飛行場予報(TAF)
発表時間: 2/17 01:54 TAHT (2/17 11:54 UTC)
予報対象時間: 17日2時 TAHT ~ 18日8時 TAHT
風向・風速不定 3m/s
視程10km以上
少しの雲 雲底高度 300m
少しの積乱雲 雲底高度 400m
全天の4割程度の雲 雲底高度 550m
全天の8割程度の雲 雲底高度 1220m
17日2時 TAHT ~ 17日17時 TAHT に一時的に
風向・風速北北西 10m/s 瞬間風速 15m/s
視程2000m
天気現象しゅう雨
17日5時 TAHT ~ 17日17時 TAHT に 確率 40% で一時的に
風向・風速北北西 15m/s 瞬間風速 23m/s
視程800m
天気現象雷雨
全天の4割程度の雲 雲底高度 240m
全天の8割程度の積乱雲 雲底高度 300m
17日17時 TAHT ~ 17日19時 TAHT に徐々に
視程9000m
天気現象運行に影響にある天気現象が終了
少しの雲 雲底高度 610m
全天の4割程度の雲 雲底高度 2440m
全天の8割程度の雲 雲底高度 7320m
TAF AMD NTAA 171154Z 1712/1818 VRB05KT 9999 FEW010 FEW013CB SCT018 BKN040
TEMPO 1712/1803 34020G30KT 2000 SHRA
PROB40 TEMPO 1715/1803 34030G45KT 0800 TSRA SCT008 BKN010CB
BECMG 1803/1805 9000 NSW FEW020 SCT080 BKN240